Eagle Mills, New York
Current Conditions -  °F | °C
As of 10:51 PM on Thursday 27 Nov 2014 (Local Time) from KALB Reporting Station
Light Snow Light Snow  
Wind Chill: 23°   Ceiling: 1600
Heat Index: 29°   Visibility: 5mi
Dew Point: 26°   Wind: 6mph
Humidity: 89%   Direction: 340°NNW
Pressure: 30.06"   Gusts: NA
Location:  42.7478°N, 73.6049°W
Report Text: KALB 280351Z 34005KT 5SM -SN BR SCT006 OVC016 M02/M03 A3006 RMK AO2 SLP182 P0000 T10171033
Loading
Personal Weather Stations






























Interactive Weather Map New forecast layout! Learn more

10-Day Weather Forecast

Advertisements
Track Severe Weather on mobile